Time;durP1;ratioP1;P1;durP2;ratioP2;P2;SDS_P1;SDS_P2;PMS_P1;PMS_P2;Temp;Humidity;BMP_temperature;BMP_pressure;BME280_temperature;BME280_humidity;BME280_pressure;Samples;Min_cycle;Max_cycle;Signal;HPM_P1;HPM_P2
2021/08/13 00:02:39;;;;;;;13.40;7.32;;;;;;;18.51;64.50;100277.28;10442812;28;20045;-61
2021/08/13 00:07:43;;;;;;;16.02;8.15;;;;;;;18.49;63.92;100268.63;10419585;28;20096;-61
2021/08/13 00:12:45;;;;;;;14.15;8.23;;;;;;;18.46;64.54;100263.59;10430964;28;20162;-62
2021/08/13 00:17:47;;;;;;;17.40;8.30;;;;;;;18.33;63.82;100265.63;10442231;28;20052;-61
2021/08/13 00:22:50;;;;;;;15.30;7.90;;;;;;;18.12;64.52;100267.44;10442568;28;20134;-62
2021/08/13 00:27:52;;;;;;;15.80;7.50;;;;;;;18.19;64.44;100266.81;10422316;28;20108;-62
2021/08/13 00:32:54;;;;;;;17.42;8.65;;;;;;;18.12;64.57;100270.06;10439997;28;20129;-62
2021/08/13 00:37:56;;;;;;;11.52;7.80;;;;;;;18.03;64.74;100266.44;10449145;28;20156;-63
2021/08/13 00:42:57;;;;;;;16.20;8.10;;;;;;;17.97;64.79;100264.31;10450133;28;20171;-62
2021/08/13 00:47:59;;;;;;;17.23;8.60;;;;;;;17.93;64.31;100264.69;10449666;28;20128;-62
2021/08/13 00:53:02;;;;;;;17.63;9.38;;;;;;;17.74;64.53;100268.91;10450044;28;20045;-63
2021/08/13 00:58:06;;;;;;;17.73;9.23;;;;;;;17.60;65.16;100271.84;10448915;28;20084;-62
2021/08/13 01:03:08;;;;;;;15.73;8.32;;;;;;;17.61;65.32;100270.88;10449641;28;20593;-63
2021/08/13 01:08:10;;;;;;;17.38;8.30;;;;;;;17.73;65.27;100279.56;10463406;28;20155;-63
2021/08/13 01:13:18;;;;;;;13.32;8.30;;;;;;;17.77;65.14;100273.91;10448069;28;20568;-62
2021/08/13 01:18:33;;;;;;;17.58;9.13;;;;;;;17.75;65.16;100270.56;10447816;28;20494;-63
2021/08/13 01:23:39;;;;;;;16.27;9.63;;;;;;;17.77;64.56;100278.38;10449620;28;20139;-62
2021/08/13 01:29:02;;;;;;;19.73;9.77;;;;;;;17.70;64.76;100283.34;10445373;28;20061;-62
2021/08/13 01:34:06;;;;;;;14.40;8.90;;;;;;;17.66;64.95;100266.06;10438451;28;20530;-62
2021/08/13 01:39:08;;;;;;;22.25;11.25;;;;;;;17.39;64.96;100260.41;10447090;28;20452;-61
2021/08/13 01:44:12;;;;;;;18.23;9.55;;;;;;;17.17;65.54;100265.75;10447232;28;20045;-61
2021/08/13 01:49:15;;;;;;;16.30;8.70;;;;;;;17.33;65.74;100271.50;10447591;28;20434;-62
2021/08/13 01:54:18;;;;;;;15.85;8.90;;;;;;;17.36;65.47;100263.31;10448616;28;20124;-61
2021/08/13 01:59:20;;;;;;;14.07;8.18;;;;;;;17.45;65.33;100275.75;10419295;28;20045;-61
2021/08/13 02:04:22;;;;;;;13.27;8.20;;;;;;;17.48;65.21;100267.59;10453146;28;20118;-61
2021/08/13 02:09:24;;;;;;;12.00;8.52;;;;;;;17.48;64.96;100275.53;10445908;28;20080;-62
2021/08/13 02:14:26;;;;;;;17.20;8.85;;;;;;;17.32;65.14;100271.59;10429076;28;20083;-61
2021/08/13 02:19:34;;;;;;;14.05;7.78;;;;;;;17.30;65.25;100266.41;10444584;28;20077;-62
2021/08/13 02:24:36;;;;;;;11.57;8.13;;;;;;;17.23;65.25;100273.19;10453911;28;20545;-61
2021/08/13 02:29:38;;;;;;;13.63;9.32;;;;;;;17.19;65.31;100277.03;10452459;28;20049;-61
2021/08/13 02:34:40;;;;;;;13.48;7.85;;;;;;;17.11;65.33;100268.88;10453746;28;20120;-61
2021/08/13 02:39:46;;;;;;;15.20;8.70;;;;;;;17.08;65.25;100261.19;10452847;28;20472;-62
2021/08/13 02:44:53;;;;;;;14.27;8.68;;;;;;;17.01;65.39;100260.03;10453306;28;20092;-61
2021/08/13 02:50:07;;;;;;;19.98;11.00;;;;;;;16.79;66.08;100271.47;10452091;28;20412;-62
2021/08/13 02:55:14;;;;;;;16.92;9.15;;;;;;;16.75;66.09;100267.41;10453028;28;20493;-62
2021/08/13 03:00:17;;;;;;;14.70;8.23;;;;;;;16.98;65.67;100262.91;10452350;28;20045;-62
2021/08/13 03:05:22;;;;;;;12.63;8.40;;;;;;;17.16;65.47;100266.69;10447915;28;20128;-61
2021/08/13 03:10:24;;;;;;;14.32;8.55;;;;;;;17.25;65.05;100265.97;10434060;28;20540;-63
2021/08/13 03:15:28;;;;;;;12.20;7.75;;;;;;;17.32;64.72;100272.44;10445440;28;20079;-61
2021/08/13 03:20:30;;;;;;;13.35;9.07;;;;;;;17.21;64.93;100266.31;10445295;28;20080;-61
2021/08/13 03:25:31;;;;;;;16.52;9.60;;;;;;;16.91;65.39;100267.03;10446265;28;20455;-62
2021/08/13 03:30:41;;;;;;;15.00;8.85;;;;;;;16.89;65.75;100274.25;10434844;28;20144;-62
2021/08/13 03:35:44;;;;;;;11.35;8.00;;;;;;;16.96;65.32;100260.41;10442968;28;20045;-62
2021/08/13 03:40:46;;;;;;;16.15;8.82;;;;;;;17.01;65.48;100252.09;10445045;28;20409;-62
2021/08/13 03:45:48;;;;;;;13.20;8.52;;;;;;;16.96;65.22;100263.03;10444226;28;20486;-62
2021/08/13 03:50:50;;;;;;;16.50;9.18;;;;;;;16.95;65.36;100264.03;10445378;28;20103;-62
2021/08/13 03:55:51;;;;;;;11.98;7.85;;;;;;;16.94;65.25;100275.53;10444232;28;20137;-62
2021/08/13 04:00:53;;;;;;;16.15;9.05;;;;;;;16.91;65.29;100278.44;10444416;28;20585;-62
2021/08/13 04:05:55;;;;;;;12.98;7.78;;;;;;;16.88;65.31;100277.81;10451727;28;20053;-62
2021/08/13 04:10:57;;;;;;;14.27;9.20;;;;;;;16.90;64.89;100275.91;10452582;28;20120;-62
2021/08/13 04:15:58;;;;;;;20.00;9.88;;;;;;;16.83;65.21;100267.63;10451111;28;20461;-62
2021/08/13 04:21:00;;;;;;;14.63;8.65;;;;;;;16.78;64.98;100263.69;10451534;28;20044;-62
2021/08/13 04:26:03;;;;;;;11.35;8.25;;;;;;;16.80;65.40;100275.81;10426268;28;20121;-61
2021/08/13 04:31:05;;;;;;;10.35;7.72;;;;;;;16.84;65.13;100279.03;10439558;28;20116;-62
2021/08/13 04:36:07;;;;;;;14.50;8.60;;;;;;;16.90;64.84;100281.19;10466514;28;20033;-62
2021/08/13 04:41:09;;;;;;;14.23;8.85;;;;;;;16.98;64.98;100276.13;10451210;28;20120;-62
2021/08/13 04:46:11;;;;;;;13.30;9.25;;;;;;;17.05;64.46;100266.75;10465651;28;20556;-62
2021/08/13 04:51:13;;;;;;;16.92;9.05;;;;;;;17.12;64.00;100273.19;10450623;28;20128;-61
2021/08/13 04:56:15;;;;;;;11.07;8.05;;;;;;;17.51;63.38;100262.03;10450076;28;20083;-62
2021/08/13 05:01:16;;;;;;;16.08;8.85;;;;;;;17.88;62.69;100282.75;10448697;28;20048;-61
2021/08/13 05:06:19;;;;;;;14.65;8.45;;;;;;;17.95;62.28;100268.88;10449200;28;20049;-62
2021/08/13 05:11:20;;;;;;;19.60;8.90;;;;;;;18.67;60.98;100286.41;10451227;28;20454;-62
2021/08/13 05:16:22;;;;;;;8.98;6.88;;;;;;;19.21;58.67;100304.56;10447917;28;20076;-64
2021/08/13 05:21:24;;;;;;;11.95;7.45;;;;;;;18.73;59.69;100303.56;10449096;28;20527;-62
2021/08/13 05:26:26;;;;;;;13.45;7.88;;;;;;;18.39;60.58;100305.66;10449462;28;20547;-62
2021/08/13 05:31:28;;;;;;;10.48;8.32;;;;;;;18.36;61.21;100305.91;10449494;28;20053;-61
2021/08/13 05:36:29;;;;;;;11.73;7.88;;;;;;;18.30;61.84;100305.63;10449346;28;20557;-62
2021/08/13 05:41:32;;;;;;;12.52;8.02;;;;;;;18.41;62.01;100297.56;10448162;28;20056;-62
2021/08/13 05:46:33;;;;;;;15.05;8.45;;;;;;;18.64;62.15;100296.44;10448815;28;20084;-62
2021/08/13 05:51:35;;;;;;;13.55;7.80;;;;;;;18.88;61.22;100304.03;10428265;28;20048;-61
2021/08/13 05:56:40;;;;;;;11.57;8.40;;;;;;;18.87;61.45;100315.63;10425587;28;20055;-62
2021/08/13 06:01:42;;;;;;;14.40;8.10;;;;;;;19.04;61.25;100315.81;10447328;28;20077;-61
2021/08/13 06:06:44;;;;;;;14.55;7.55;;;;;;;19.31;60.33;100313.38;10445934;28;20402;-62
2021/08/13 06:11:46;;;;;;;12.20;7.90;;;;;;;19.69;60.02;100309.88;10438881;28;20095;-62
2021/08/13 06:16:48;;;;;;;15.52;8.35;;;;;;;19.87;59.53;100312.69;10447527;28;20144;-62
2021/08/13 06:21:50;;;;;;;11.95;7.78;;;;;;;20.31;58.42;100296.13;10445051;28;20090;-62
2021/08/13 06:26:51;;;;;;;13.18;8.88;;;;;;;20.56;58.11;100303.41;10446435;28;20135;-61
2021/08/13 06:31:53;;;;;;;13.13;7.60;;;;;;;20.71;57.73;100304.66;10441434;28;20053;-62
2021/08/13 06:36:55;;;;;;;13.85;9.30;;;;;;;20.67;58.21;100292.63;10442345;28;20045;-62
2021/08/13 06:41:57;;;;;;;13.55;9.52;;;;;;;20.72;57.92;100287.69;10425652;28;20115;-62
2021/08/13 06:46:59;;;;;;;13.20;9.57;;;;;;;20.94;57.81;100289.13;10421251;28;20056;-61
2021/08/13 06:52:02;;;;;;;11.38;8.85;;;;;;;20.94;57.84;100289.97;10423683;28;20136;-61
2021/08/13 06:57:04;;;;;;;14.52;8.90;;;;;;;21.08;56.51;100296.59;10415534;28;20041;-61
2021/08/13 07:02:05;;;;;;;16.92;8.63;;;;;;;21.41;56.47;100296.00;10424454;28;20072;-61
2021/08/13 07:07:08;;;;;;;13.20;8.77;;;;;;;21.55;55.68;100299.94;10420063;28;20057;-62
2021/08/13 07:12:10;;;;;;;16.80;8.52;;;;;;;21.43;55.87;100315.31;10428649;28;20620;-61
2021/08/13 07:17:13;;;;;;;12.15;8.55;;;;;;;21.64;55.40;100315.00;10416737;28;20045;-62
2021/08/13 07:22:14;;;;;;;16.00;8.48;;;;;;;22.02;54.89;100317.31;10428789;28;20136;-61
2021/08/13 07:27:16;;;;;;;13.55;9.45;;;;;;;22.27;54.27;100321.81;10416969;28;20107;-61
2021/08/13 07:32:19;;;;;;;13.90;8.40;;;;;;;22.45;53.95;100316.47;10428407;28;20075;-61
2021/08/13 07:37:20;;;;;;;14.45;8.68;;;;;;;22.46;53.88;100312.78;10419135;28;20121;-62
2021/08/13 07:42:26;;;;;;;14.82;8.45;;;;;;;22.47;53.84;100315.31;10435917;28;20502;-61
2021/08/13 07:47:28;;;;;;;15.57;9.02;;;;;;;23.61;51.36;100320.06;10428719;28;20096;-62
2021/08/13 07:52:30;;;;;;;15.35;8.60;;;;;;;24.33;49.41;100329.06;10426892;28;20141;-63
2021/08/13 07:57:32;;;;;;;13.45;7.97;;;;;;;24.80;47.95;100328.13;10422396;28;20107;-61
2021/08/13 08:02:34;;;;;;;14.80;8.82;;;;;;;25.09;47.05;100314.09;10433589;28;20069;-61
2021/08/13 08:07:36;;;;;;;15.30;8.38;;;;;;;25.37;45.92;100317.13;10431054;28;20052;-60
2021/08/13 08:12:38;;;;;;;17.13;7.63;;;;;;;25.92;45.72;100305.16;10438583;28;20090;-62
2021/08/13 08:17:40;;;;;;;11.88;7.65;;;;;;;26.58;44.65;100309.75;10429687;28;20068;-62
2021/08/13 08:22:42;;;;;;;10.52;7.35;;;;;;;27.01;43.85;100312.56;10426060;28;20129;-62
2021/08/13 08:27:44;;;;;;;13.07;7.43;;;;;;;27.38;42.76;100321.28;10421087;28;20045;-62
2021/08/13 08:32:45;;;;;;;14.43;8.18;;;;;;;27.01;43.18;100317.94;10429663;28;20128;-62
2021/08/13 08:37:55;;;;;;;12.27;7.70;;;;;;;27.32;42.41;100315.84;10432544;28;20099;-61
2021/08/13 08:42:59;;;;;;;14.30;7.28;;;;;;;28.00;41.49;100310.75;10438702;28;20124;-62
2021/08/13 08:48:04;;;;;;;12.80;6.60;;;;;;;28.11;41.57;100304.00;10430206;28;20132;-62
2021/08/13 08:53:27;;;;;;;14.30;7.15;;;;;;;28.34;40.15;100307.28;10420348;28;21121;-61
2021/08/13 08:58:31;;;;;;;17.25;7.57;;;;;;;27.65;41.58;100313.50;10431238;28;20075;-61
2021/08/13 09:03:33;;;;;;;11.45;7.00;;;;;;;28.04;41.31;100309.31;10420774;28;20049;-62
2021/08/13 09:08:35;;;;;;;10.07;6.75;;;;;;;28.28;41.82;100318.78;10462563;28;20053;-62
2021/08/13 09:13:38;;;;;;;15.18;6.85;;;;;;;28.13;41.43;100304.63;10448387;28;20128;-62
2021/08/13 09:18:41;;;;;;;14.70;6.70;;;;;;;28.04;42.15;100303.94;10435338;28;20048;-62
2021/08/13 09:23:45;;;;;;;11.20;5.90;;;;;;;28.61;41.20;100310.97;10441586;28;20569;-62
2021/08/13 09:28:52;;;;;;;9.95;5.75;;;;;;;29.33;39.40;100309.44;10443523;28;20758;-62
2021/08/13 09:34:06;;;;;;;13.82;6.30;;;;;;;29.60;39.02;100310.34;10447236;28;20052;-62
2021/08/13 09:39:10;;;;;;;13.63;6.15;;;;;;;29.87;38.69;100309.31;10419550;28;20060;-62
2021/08/13 09:44:12;;;;;;;9.43;6.13;;;;;;;29.87;38.87;100302.06;10443395;28;20131;-61
2021/08/13 09:49:16;;;;;;;8.77;5.97;;;;;;;29.99;38.28;100302.28;10434101;28;20099;-61
2021/08/13 09:54:18;;;;;;;9.77;6.25;;;;;;;30.15;38.41;100296.47;10444524;28;20525;-62
2021/08/13 09:59:20;;;;;;;10.93;6.35;;;;;;;30.31;37.97;100289.81;10427612;28;20601;-63
2021/08/13 10:04:33;;;;;;;9.95;6.13;;;;;;;30.56;37.96;100282.69;10432811;28;20041;-63
2021/08/13 10:09:35;;;;;;;8.27;5.97;;;;;;;30.50;37.82;100281.69;10438087;28;20061;-63
2021/08/13 10:14:42;;;;;;;11.35;5.72;;;;;;;30.65;38.61;100276.03;10436243;28;20099;-63
2021/08/13 10:19:50;;;;;;;10.17;5.97;;;;;;;30.99;37.68;100267.59;10437981;28;20457;-63
2021/08/13 10:24:53;;;;;;;10.93;6.35;;;;;;;31.12;36.28;100275.66;10440437;28;20136;-63
2021/08/13 10:29:56;;;;;;;8.55;5.90;;;;;;;31.36;34.33;100268.63;10435460;28;20061;-63
2021/08/13 10:34:58;;;;;;;14.40;6.50;;;;;;;31.33;35.37;100271.78;10430834;28;20124;-64
2021/08/13 10:40:00;;;;;;;10.75;6.10;;;;;;;31.03;35.98;100268.00;10429036;28;20041;-63
2021/08/13 10:45:05;;;;;;;9.60;6.00;;;;;;;31.40;34.11;100272.56;10420525;28;20049;-65
2021/08/13 10:50:08;;;;;;;10.18;5.93;;;;;;;31.41;33.20;100276.94;10444635;28;20080;-63
2021/08/13 10:55:39;;;;;;;11.13;6.32;;;;;;;31.00;32.99;100271.97;10440031;28;20075;-64
2021/08/13 11:00:59;;;;;;;10.32;5.72;;;;;;;30.76;33.60;100275.38;10428684;28;20045;-63
2021/08/13 11:06:02;;;;;;;10.18;6.15;;;;;;;30.51;34.97;100267.16;10432456;28;20057;-63
2021/08/13 11:11:04;;;;;;;11.30;6.30;;;;;;;30.84;34.90;100260.81;10431673;28;20139;-63
2021/08/13 11:16:33;;;;;;;9.32;5.78;;;;;;;30.73;33.33;100261.47;10442409;28;20477;-63
2021/08/13 11:21:45;;;;;;;12.15;5.75;;;;;;;30.84;33.27;100258.09;10436277;28;20092;-63
2021/08/13 11:26:47;;;;;;;7.95;5.93;;;;;;;30.75;34.05;100259.38;10438365;28;20127;-63
2021/08/13 11:31:52;;;;;;;8.77;5.50;;;;;;;30.70;33.91;100254.63;10441247;28;20486;-63
2021/08/13 11:36:54;;;;;;;10.18;6.28;;;;;;;30.91;33.48;100256.19;10420753;28;20084;-64
2021/08/13 11:42:03;;;;;;;9.85;6.30;;;;;;;30.97;33.07;100258.03;10430033;28;20501;-63
2021/08/13 11:47:06;;;;;;;14.07;6.80;;;;;;;31.05;33.86;100260.50;10435212;28;20059;-63
2021/08/13 11:52:08;;;;;;;8.30;5.90;;;;;;;31.24;33.42;100257.69;10441037;28;20069;-64
2021/08/13 11:57:23;;;;;;;8.60;5.70;;;;;;;31.47;33.68;100244.41;10428874;28;20041;-64
2021/08/13 12:02:31;;;;;;;11.20;6.13;;;;;;;31.68;33.11;100245.94;10427514;28;20379;-63
2021/08/13 12:07:34;;;;;;;9.32;5.65;;;;;;;31.64;33.49;100247.44;10429186;28;20053;-63
2021/08/13 12:12:36;;;;;;;8.57;5.75;;;;;;;31.89;33.24;100250.97;10431520;28;20084;-63
2021/08/13 12:17:38;;;;;;;16.55;6.28;;;;;;;31.81;33.46;100253.97;10444829;28;20053;-64
2021/08/13 12:22:41;;;;;;;12.35;5.68;;;;;;;31.86;33.82;100254.13;10440760;28;20053;-63
2021/08/13 12:27:43;;;;;;;12.77;6.75;;;;;;;31.59;33.13;100250.00;10448949;28;20576;-63
2021/08/13 12:32:46;;;;;;;11.15;6.13;;;;;;;31.38;34.62;100255.72;10446952;28;20069;-62
2021/08/13 12:37:48;;;;;;;9.77;6.55;;;;;;;31.11;34.42;100246.16;10449051;28;20061;-62
2021/08/13 12:42:51;;;;;;;8.10;6.60;;;;;;;31.41;34.56;100247.19;10442479;28;20094;-62
2021/08/13 12:47:53;;;;;;;12.27;6.50;;;;;;;31.58;33.93;100240.22;10448995;28;20179;-62
2021/08/13 12:53:13;;;;;;;7.68;6.10;;;;;;;31.62;32.94;100238.72;10433504;28;20061;-62
2021/08/13 12:58:32;;;;;;;9.02;6.35;;;;;;;31.51;33.34;100250.28;10432739;28;20136;-62
2021/08/13 13:03:34;;;;;;;10.40;6.20;;;;;;;31.67;33.45;100247.00;10447723;28;20098;-63
2021/08/13 13:08:47;;;;;;;11.45;6.18;;;;;;;31.60;33.11;100250.84;10445864;28;20460;-63
2021/08/13 13:13:50;;;;;;;10.18;6.63;;;;;;;31.37;33.85;100245.97;10424218;28;20132;-62
2021/08/13 13:18:52;;;;;;;8.38;6.32;;;;;;;31.13;34.22;100244.06;10426073;28;20144;-62
2021/08/13 13:23:56;;;;;;;13.80;6.82;;;;;;;30.84;35.55;100244.59;10448979;28;20048;-63
2021/08/13 13:29:07;;;;;;;12.43;7.15;;;;;;;30.55;36.72;100227.91;10448174;28;20131;-63
2021/08/13 13:34:09;;;;;;;12.40;7.20;;;;;;;30.66;37.33;100223.72;10447422;28;20122;-63
2021/08/13 13:39:11;;;;;;;11.95;8.00;;;;;;;31.34;35.99;100222.91;10448750;28;20076;-62
2021/08/13 13:44:22;;;;;;;13.27;7.32;;;;;;;31.47;35.53;100221.97;10447385;28;20454;-62
2021/08/13 13:49:24;;;;;;;10.30;7.65;;;;;;;31.59;35.93;100233.78;10447713;28;20045;-62
2021/08/13 13:54:26;;;;;;;14.93;7.88;;;;;;;31.10;36.73;100239.91;10430739;28;20136;-63
2021/08/13 13:59:28;;;;;;;12.20;7.15;;;;;;;30.99;36.31;100246.00;10444641;28;20080;-63
2021/08/13 14:04:30;;;;;;;15.73;8.57;;;;;;;31.02;36.39;100260.94;10428036;28;20135;-63
2021/08/13 14:09:31;;;;;;;15.88;7.97;;;;;;;30.79;36.68;100257.91;10435827;28;20061;-63
2021/08/13 14:14:34;;;;;;;13.48;8.55;;;;;;;30.62;36.74;100253.00;10412594;28;20072;-63
2021/08/13 14:19:36;;;;;;;15.85;8.32;;;;;;;30.99;36.76;100274.88;10444260;28;20103;-63
2021/08/13 14:24:38;;;;;;;13.23;8.25;;;;;;;30.90;36.80;100265.34;10432449;28;20144;-63
2021/08/13 14:29:40;;;;;;;14.10;8.18;;;;;;;31.20;36.14;100269.16;10444255;28;20133;-63
2021/08/13 14:34:42;;;;;;;12.75;7.85;;;;;;;31.02;36.46;100267.19;10424049;28;20465;-63
2021/08/13 14:39:44;;;;;;;14.10;7.80;;;;;;;30.50;36.75;100276.28;10427855;28;20390;-63
2021/08/13 14:44:46;;;;;;;17.08;7.80;;;;;;;30.69;37.24;100271.88;10441750;28;20139;-63
2021/08/13 14:49:47;;;;;;;16.38;7.85;;;;;;;30.89;36.40;100283.41;10442183;28;20120;-63
2021/08/13 14:54:50;;;;;;;13.70;7.38;;;;;;;31.06;36.56;100278.38;10416185;28;20124;-63
2021/08/13 14:59:52;;;;;;;9.80;7.32;;;;;;;30.76;36.51;100282.66;10442269;28;20077;-63
2021/08/13 15:04:54;;;;;;;10.25;7.72;;;;;;;30.20;36.22;100287.75;10430197;28;20454;-63
2021/08/13 15:09:55;;;;;;;9.63;7.55;;;;;;;29.50;37.49;100291.84;10437005;28;20437;-63
2021/08/13 15:14:57;;;;;;;25.05;8.82;;;;;;;29.33;37.58;100295.13;10441828;28;20076;-63
2021/08/13 15:19:59;;;;;;;13.60;8.20;;;;;;;29.14;38.22;100301.28;10426821;28;20037;-63
2021/08/13 15:25:01;;;;;;;17.73;8.40;;;;;;;28.93;38.75;100304.97;10421067;28;20120;-63
2021/08/13 15:30:04;;;;;;;13.88;8.73;;;;;;;28.79;39.02;100295.94;10423617;28;20037;-63
2021/08/13 15:35:08;;;;;;;12.02;8.95;;;;;;;28.52;39.61;100302.25;10455578;28;20312;-63
2021/08/13 15:40:13;;;;;;;14.50;8.63;;;;;;;28.44;40.07;100304.25;10425155;28;20042;-63
2021/08/13 15:45:15;;;;;;;14.10;9.18;;;;;;;28.52;39.78;100307.63;10422969;28;20473;-63
2021/08/13 15:50:19;;;;;;;17.05;8.70;;;;;;;28.22;40.69;100306.97;10430137;28;20044;-63
2021/08/13 15:55:22;;;;;;;12.48;8.43;;;;;;;28.34;40.47;100311.84;10436140;28;20474;-63
2021/08/13 16:00:24;;;;;;;15.07;8.73;;;;;;;28.41;40.02;100310.84;10448491;28;20123;-63
2021/08/13 16:05:26;;;;;;;13.80;7.63;;;;;;;28.27;40.23;100304.53;10452384;28;20052;-63
2021/08/13 16:10:29;;;;;;;9.85;7.75;;;;;;;28.08;40.90;100307.91;10450383;28;20048;-64
2021/08/13 16:15:31;;;;;;;12.63;7.65;;;;;;;28.03;40.78;100304.94;10439394;28;20088;-63
2021/08/13 16:20:33;;;;;;;9.35;7.50;;;;;;;27.86;41.10;100319.72;10451155;28;20051;-63
2021/08/13 16:25:34;;;;;;;10.02;6.95;;;;;;;27.85;41.60;100325.31;10444361;28;20099;-64
2021/08/13 16:30:36;;;;;;;12.60;6.82;;;;;;;27.56;41.71;100322.72;10450673;28;20099;-63
2021/08/13 16:35:38;;;;;;;9.98;6.68;;;;;;;27.46;42.10;100329.22;10451228;28;20692;-64
2021/08/13 16:40:41;;;;;;;11.10;7.22;;;;;;;27.55;41.31;100326.41;10437083;28;20092;-64
2021/08/13 16:45:43;;;;;;;19.00;7.93;;;;;;;27.41;41.88;100333.50;10414507;28;20049;-63
2021/08/13 16:50:45;;;;;;;14.15;6.38;;;;;;;27.35;41.58;100335.09;10461116;28;20124;-63
2021/08/13 16:55:48;;;;;;;11.27;6.93;;;;;;;27.35;41.76;100332.41;10451035;28;20057;-63
2021/08/13 17:00:50;;;;;;;14.13;6.85;;;;;;;27.42;40.82;100325.25;10450735;28;20131;-63
2021/08/13 17:05:52;;;;;;;13.50;6.32;;;;;;;27.28;41.57;100326.13;10449144;28;20057;-63
2021/08/13 17:10:53;;;;;;;10.40;5.97;;;;;;;27.43;41.46;100328.78;10431961;28;20474;-63
2021/08/13 17:15:59;;;;;;;15.00;5.45;;;;;;;27.12;41.14;100338.91;10444470;28;20049;-64
2021/08/13 17:21:01;;;;;;;13.95;5.03;;;;;;;26.86;40.60;100338.59;10436748;28;20476;-63
2021/08/13 17:26:03;;;;;;;9.73;4.38;;;;;;;26.68;40.39;100341.66;10442308;28;20052;-63
2021/08/13 17:31:05;;;;;;;6.35;4.05;;;;;;;26.53;41.59;100335.41;10432945;28;20049;-63
2021/08/13 17:36:07;;;;;;;8.98;3.83;;;;;;;26.47;40.63;100333.47;10429831;28;20083;-63
2021/08/13 17:41:10;;;;;;;7.80;4.00;;;;;;;26.51;40.55;100324.03;10436196;28;20128;-64
2021/08/13 17:46:12;;;;;;;6.50;4.00;;;;;;;26.69;41.15;100324.53;10459072;28;20131;-64
2021/08/13 17:51:17;;;;;;;6.75;3.42;;;;;;;26.75;40.81;100323.78;10451156;28;20053;-63
2021/08/13 17:56:19;;;;;;;9.75;3.70;;;;;;;26.78;40.87;100319.91;10439007;28;20037;-63
2021/08/13 18:01:21;;;;;;;12.00;4.00;;;;;;;26.53;41.10;100322.00;10447824;28;20072;-63
2021/08/13 18:06:23;;;;;;;8.13;3.92;;;;;;;26.47;40.86;100326.25;10441923;28;20484;-63
2021/08/13 18:11:25;;;;;;;6.90;3.53;;;;;;;26.17;41.40;100334.44;10447090;28;20088;-63
2021/08/13 18:16:29;;;;;;;5.80;3.40;;;;;;;25.94;41.33;100344.38;10449277;28;20545;-63
2021/08/13 18:21:34;;;;;;;4.95;3.20;;;;;;;25.82;41.86;100350.13;10445726;28;20053;-63
2021/08/13 18:26:38;;;;;;;8.10;3.50;;;;;;;25.70;42.38;100356.94;10444288;28;20048;-63
2021/08/13 18:31:40;;;;;;;8.85;3.63;;;;;;;25.48;43.46;100357.75;10432382;28;20127;-63
2021/08/13 18:36:43;;;;;;;7.18;3.05;;;;;;;25.21;42.74;100360.03;10430312;28;20390;-63
2021/08/13 18:41:46;;;;;;;8.38;3.20;;;;;;;24.89;44.19;100369.06;10435888;28;20076;-63
2021/08/13 18:46:48;;;;;;;8.63;3.45;;;;;;;24.65;45.22;100382.47;10482925;28;20139;-63
2021/08/13 18:51:50;;;;;;;10.60;3.97;;;;;;;24.33;46.14;100393.25;10450516;28;20076;-64
2021/08/13 18:56:52;;;;;;;7.85;3.78;;;;;;;23.77;47.31;100399.34;10448131;28;20414;-63
2021/08/13 19:01:53;;;;;;;6.95;3.45;;;;;;;23.58;47.57;100408.50;10439096;28;20067;-63
2021/08/13 19:06:55;;;;;;;10.45;3.65;;;;;;;23.41;48.45;100409.47;10445557;28;20056;-63
2021/08/13 19:11:57;;;;;;;7.22;3.88;;;;;;;23.21;49.92;100400.00;10449129;28;20140;-63
2021/08/13 19:16:59;;;;;;;6.07;3.40;;;;;;;23.20;49.70;100411.69;10445952;28;20094;-64
2021/08/13 19:22:00;;;;;;;8.05;3.53;;;;;;;23.21;49.53;100408.84;10467186;28;20440;-61
2021/08/13 19:27:03;;;;;;;7.22;3.40;;;;;;;23.09;50.05;100407.47;10445196;28;20443;-60
2021/08/13 19:32:05;;;;;;;7.18;3.80;;;;;;;22.99;49.95;100406.75;10470640;28;20049;-60
2021/08/13 19:37:07;;;;;;;5.53;3.65;;;;;;;22.76;50.68;100416.28;10461627;28;20589;-61
2021/08/13 19:42:09;;;;;;;9.15;3.30;;;;;;;22.60;51.68;100433.00;10466670;28;20080;-61
2021/08/13 19:47:12;;;;;;;8.05;3.40;;;;;;;22.46;51.81;100433.56;10468249;28;20138;-60
2021/08/13 19:52:14;;;;;;;8.43;3.58;;;;;;;22.33;52.61;100441.13;10490337;28;20432;-60
2021/08/13 19:57:15;;;;;;;8.82;3.80;;;;;;;22.17;53.00;100443.66;10461603;28;20076;-60
2021/08/13 20:02:17;;;;;;;9.98;4.60;;;;;;;21.92;53.59;100440.91;10454220;28;20037;-60
2021/08/13 20:07:19;;;;;;;10.95;4.45;;;;;;;21.67;54.24;100438.00;10447735;28;20115;-60
2021/08/13 20:12:21;;;;;;;7.20;3.65;;;;;;;21.58;54.51;100432.69;10438550;28;20135;-60
2021/08/13 20:17:23;;;;;;;9.38;3.88;;;;;;;21.46;54.76;100444.53;10448466;28;20140;-60
2021/08/13 20:22:25;;;;;;;10.30;3.88;;;;;;;21.39;55.12;100441.66;10451450;28;20083;-60
2021/08/13 20:27:27;;;;;;;10.43;4.47;;;;;;;21.29;55.49;100437.34;10436544;28;20045;-60
2021/08/13 20:32:29;;;;;;;8.88;4.13;;;;;;;21.09;55.72;100458.69;10449821;28;20045;-60
2021/08/13 20:37:31;;;;;;;7.25;3.90;;;;;;;20.91;56.38;100443.63;10449143;28;20049;-60
2021/08/13 20:42:37;;;;;;;8.93;3.78;;;;;;;20.92;56.27;100453.31;10450111;28;20456;-60
2021/08/13 20:47:38;;;;;;;7.35;4.10;;;;;;;20.90;56.06;100449.97;10422606;28;20136;-60
2021/08/13 20:52:40;;;;;;;7.47;3.45;;;;;;;20.78;56.32;100451.13;10435891;28;20056;-60
2021/08/13 20:57:43;;;;;;;9.30;4.03;;;;;;;20.56;57.07;100446.91;10446451;28;20159;-60
2021/08/13 21:02:46;;;;;;;8.32;3.75;;;;;;;20.51;57.03;100451.84;10449002;28;20045;-60
2021/08/13 21:07:50;;;;;;;11.50;4.28;;;;;;;20.45;57.19;100451.56;10435760;28;20389;-60
2021/08/13 21:12:51;;;;;;;8.85;3.80;;;;;;;20.36;57.47;100449.78;10449377;28;20076;-60
2021/08/13 21:17:54;;;;;;;12.75;3.88;;;;;;;20.29;57.62;100446.84;10447290;28;20083;-60
2021/08/13 21:22:56;;;;;;;9.25;3.88;;;;;;;20.26;57.73;100442.63;10423988;28;20103;-60
2021/08/13 21:27:58;;;;;;;7.18;3.72;;;;;;;20.15;57.94;100441.94;10446744;28;20152;-60
2021/08/13 21:33:00;;;;;;;8.40;4.10;;;;;;;20.03;58.12;100451.03;10447042;28;20136;-60
2021/08/13 21:38:03;;;;;;;12.60;3.95;;;;;;;19.90;58.77;100455.75;10447937;28;20049;-60
2021/08/13 21:43:04;;;;;;;11.70;3.90;;;;;;;19.91;58.57;100455.63;10431025;28;20049;-60
2021/08/13 21:48:06;;;;;;;8.45;3.50;;;;;;;19.88;58.49;100460.38;10447327;28;20088;-60
2021/08/13 21:53:08;;;;;;;5.82;3.60;;;;;;;19.80;58.84;100461.03;10462248;28;20458;-60
2021/08/13 21:58:10;;;;;;;9.02;3.80;;;;;;;19.71;59.00;100463.66;10447027;28;20052;-60
2021/08/13 22:03:12;;;;;;;12.60;3.90;;;;;;;19.63;58.97;100460.84;10438291;28;20041;-60
2021/08/13 22:08:14;;;;;;;9.77;3.53;;;;;;;19.65;58.96;100469.50;10446564;28;20053;-60
2021/08/13 22:13:15;;;;;;;6.25;3.80;;;;;;;19.63;59.30;100466.16;10437303;28;20136;-60
2021/08/13 22:18:17;;;;;;;6.93;4.13;;;;;;;19.53;59.38;100462.63;10445769;28;20076;-60
2021/08/13 22:23:19;;;;;;;8.90;4.30;;;;;;;19.40;59.77;100471.69;10442210;28;20063;-60
2021/08/13 22:28:22;;;;;;;8.75;3.83;;;;;;;19.36;59.72;100475.56;10444840;28;20132;-60
2021/08/13 22:33:23;;;;;;;13.25;4.25;;;;;;;19.30;59.68;100472.63;10422630;28;20072;-60
2021/08/13 22:38:25;;;;;;;9.48;3.95;;;;;;;19.14;60.16;100473.13;10426922;28;20091;-60
2021/08/13 22:43:27;;;;;;;5.15;3.97;;;;;;;19.05;60.43;100479.22;10444328;28;20136;-60
2021/08/13 22:48:28;;;;;;;6.55;4.10;;;;;;;18.91;60.63;100486.66;10445087;28;20140;-60
2021/08/13 22:53:30;;;;;;;8.02;3.90;;;;;;;18.85;60.36;100482.69;10438970;28;20468;-59
2021/08/13 22:58:32;;;;;;;10.25;4.00;;;;;;;18.70;60.86;100501.72;10442205;28;20215;-60
2021/08/13 23:03:40;;;;;;;8.65;4.10;;;;;;;18.66;60.60;100509.09;10442170;28;20461;-60